Aérodrome :
LOGIN :

S'inscrire | Disclaimer

   EN    FR    IT 

 










Légende :    VFR   VFR Marginal   IFR   IFR Intensif   IFR Très Intensif
Visi : 
Plafond : 
>= 8 km
>= 3000ft
5 à 8 km
1000 à 3000 ft
1500m à 5 km
500 à 1000 ft
800 à 1500m
200 à 500 ft
< 800m
< 200 ft
Symboles :   Orages  Brouillard  Fortes neiges  Fortes précipitations  Vent > 20 kt
SIGMETs :   Divers  Orages  Givrage  Turbulence  Onde Orograph.  Cendres Volcan.






- Altitude de l'aérodrome : 326 ft
- Code IATA : LCG


LECO - A Coruna

DERNIER METAR :
  • 261600Z 28008KT 240V320 9999 BKN045 13/06 Q1023 NOSIG

METARs EXPIRÉS :
  • 261530Z 29007KT 220V020 9999 BKN045 13/06 Q1023 NOSIG
  • 261500Z 29008KT 240V350 9999 FEW034 SCT047 13/07 Q1024 NOSIG
  • 261430Z 31007KT 230V030 9999 BKN034 13/07 Q1024 NOSIG
  • 261400Z 29008KT 250V330 9999 FEW032 SCT048 13/07 Q1024 NOSIG
  • 261330Z 29007KT 250V350 9999 SCT035 BKN048 12/07 Q1024 NOSIG

TAF TAF LECO
Valide du 26 à 15h jusqu'au 27 à 15h UTC


261400Z 2615/2715 27009KT 9999 SCT035 BKN045 TX17/2712Z TN10/2703Z
PROB40
TEMPO 2621/2715 24015G25KT



MET'MAP, la Météo Aéronautique d'un coup d'oeil ! - Copyright ORBIFLY Décembre 2007 - Disclaimer

ORBIFLY MET'MAP TEAM :

Programmation & Développement : Alexandra Zaïnal
Sur une idée originale de : Baudouin d'Aumeries
Assistance à la programmation : Marc-Olivier Méhu
Soutien technique & logistique : Manuel Goepfert

Contact : metmap@orbifly.com




SOURCES & CREDITS :

   NOAA